sensor_id;sensor_type;location;lat;lon;timestamp;P1;durP1;ratioP1;P2;durP2;ratioP2
42092;SDS011;28974;50.316;18.960;2022-09-29T00:06:36;26.83;;;11.43;;
42092;SDS011;28974;50.316;18.960;2022-09-29T00:18:37;21.17;;;11.27;;
42092;SDS011;28974;50.316;18.960;2022-09-29T00:30:37;29.58;;;13.20;;
42092;SDS011;28974;50.316;18.960;2022-09-29T00:42:37;37.83;;;15.88;;
42092;SDS011;28974;50.316;18.960;2022-09-29T00:54:48;37.45;;;14.57;;
42092;SDS011;28974;50.316;18.960;2022-09-29T01:06:53;32.03;;;13.13;;
42092;SDS011;28974;50.316;18.960;2022-09-29T01:18:54;29.95;;;13.43;;
42092;SDS011;28974;50.316;18.960;2022-09-29T01:31:11;30.05;;;15.20;;
42092;SDS011;28974;50.316;18.960;2022-09-29T01:43:19;25.80;;;14.23;;
42092;SDS011;28974;50.316;18.960;2022-09-29T01:55:21;35.00;;;14.95;;
42092;SDS011;28974;50.316;18.960;2022-09-29T02:07:24;46.75;;;18.63;;
42092;SDS011;28974;50.316;18.960;2022-09-29T02:19:28;34.35;;;17.88;;
42092;SDS011;28974;50.316;18.960;2022-09-29T02:31:31;35.35;;;19.48;;
42092;SDS011;28974;50.316;18.960;2022-09-29T02:43:38;24.60;;;13.75;;
42092;SDS011;28974;50.316;18.960;2022-09-29T02:55:46;26.98;;;13.23;;
42092;SDS011;28974;50.316;18.960;2022-09-29T03:07:48;27.55;;;12.65;;
42092;SDS011;28974;50.316;18.960;2022-09-29T03:19:48;24.42;;;12.98;;
42092;SDS011;28974;50.316;18.960;2022-09-29T03:31:49;19.33;;;11.45;;
42092;SDS011;28974;50.316;18.960;2022-09-29T03:43:49;22.27;;;12.20;;
42092;SDS011;28974;50.316;18.960;2022-09-29T03:55:50;25.08;;;11.25;;
42092;SDS011;28974;50.316;18.960;2022-09-29T04:07:50;22.33;;;11.65;;
42092;SDS011;28974;50.316;18.960;2022-09-29T04:19:50;25.02;;;12.63;;
42092;SDS011;28974;50.316;18.960;2022-09-29T04:31:51;26.38;;;12.88;;
42092;SDS011;28974;50.316;18.960;2022-09-29T04:43:51;27.75;;;13.23;;
42092;SDS011;28974;50.316;18.960;2022-09-29T04:55:51;25.05;;;13.88;;
42092;SDS011;28974;50.316;18.960;2022-09-29T05:07:51;29.90;;;15.55;;
42092;SDS011;28974;50.316;18.960;2022-09-29T05:19:52;45.70;;;15.52;;
42092;SDS011;28974;50.316;18.960;2022-09-29T05:31:52;32.38;;;15.30;;
42092;SDS011;28974;50.316;18.960;2022-09-29T05:43:53;32.55;;;14.05;;
42092;SDS011;28974;50.316;18.960;2022-09-29T05:55:53;27.63;;;14.60;;
42092;SDS011;28974;50.316;18.960;2022-09-29T06:07:54;27.63;;;14.05;;
42092;SDS011;28974;50.316;18.960;2022-09-29T06:19:54;20.08;;;11.88;;
42092;SDS011;28974;50.316;18.960;2022-09-29T06:31:55;23.20;;;12.63;;
42092;SDS011;28974;50.316;18.960;2022-09-29T06:43:55;33.10;;;13.93;;
42092;SDS011;28974;50.316;18.960;2022-09-29T06:55:56;25.80;;;15.00;;
42092;SDS011;28974;50.316;18.960;2022-09-29T07:07:56;27.48;;;13.10;;
42092;SDS011;28974;50.316;18.960;2022-09-29T07:19:58;37.25;;;17.88;;
42092;SDS011;28974;50.316;18.960;2022-09-29T07:31:59;67.88;;;19.85;;
42092;SDS011;28974;50.316;18.960;2022-09-29T07:43:59;24.65;;;13.65;;
42092;SDS011;28974;50.316;18.960;2022-09-29T08:21:28;21.48;;;13.00;;
42092;SDS011;28974;50.316;18.960;2022-09-29T08:34:16;20.85;;;10.93;;
42092;SDS011;28974;50.316;18.960;2022-09-29T08:58:21;14.18;;;8.65;;
42092;SDS011;28974;50.316;18.960;2022-09-29T09:46:55;28.73;;;12.38;;
42092;SDS011;28974;50.316;18.960;2022-09-29T09:59:21;37.38;;;18.17;;
42092;SDS011;28974;50.316;18.960;2022-09-29T10:11:24;32.27;;;16.97;;
42092;SDS011;28974;50.316;18.960;2022-09-29T10:23:27;37.70;;;17.25;;
42092;SDS011;28974;50.316;18.960;2022-09-29T10:47:28;25.23;;;10.43;;
42092;SDS011;28974;50.316;18.960;2022-09-29T10:59:28;29.42;;;12.23;;
42092;SDS011;28974;50.316;18.960;2022-09-29T12:00:09;20.17;;;10.50;;
42092;SDS011;28974;50.316;18.960;2022-09-29T12:24:39;25.20;;;11.20;;
42092;SDS011;28974;50.316;18.960;2022-09-29T12:36:43;23.10;;;10.15;;
42092;SDS011;28974;50.316;18.960;2022-09-29T13:37:41;22.17;;;9.90;;
42092;SDS011;28974;50.316;18.960;2022-09-29T13:49:42;14.93;;;9.15;;
42092;SDS011;28974;50.316;18.960;2022-09-29T14:01:42;27.85;;;9.85;;
42092;SDS011;28974;50.316;18.960;2022-09-29T14:13:45;168.93;;;20.30;;
42092;SDS011;28974;50.316;18.960;2022-09-29T14:25:48;54.58;;;10.10;;
42092;SDS011;28974;50.316;18.960;2022-09-29T14:37:51;14.02;;;5.53;;
42092;SDS011;28974;50.316;18.960;2022-09-29T15:14:37;17.08;;;5.90;;
42092;SDS011;28974;50.316;18.960;2022-09-29T15:26:37;10.10;;;4.85;;
42092;SDS011;28974;50.316;18.960;2022-09-29T15:38:38;13.43;;;6.47;;
42092;SDS011;28974;50.316;18.960;2022-09-29T15:50:42;19.88;;;6.82;;
42092;SDS011;28974;50.316;18.960;2022-09-29T16:02:42;18.40;;;8.63;;
42092;SDS011;28974;50.316;18.960;2022-09-29T16:14:42;19.98;;;11.02;;
42092;SDS011;28974;50.316;18.960;2022-09-29T16:26:47;28.93;;;11.67;;
42092;SDS011;28974;50.316;18.960;2022-09-29T16:38:48;24.27;;;10.88;;
42092;SDS011;28974;50.316;18.960;2022-09-29T16:50:54;28.67;;;13.35;;
42092;SDS011;28974;50.316;18.960;2022-09-29T17:02:55;35.00;;;17.45;;
42092;SDS011;28974;50.316;18.960;2022-09-29T17:15:04;43.17;;;20.13;;
42092;SDS011;28974;50.316;18.960;2022-09-29T17:27:04;40.67;;;18.85;;
42092;SDS011;28974;50.316;18.960;2022-09-29T17:39:23;33.90;;;18.02;;
42092;SDS011;28974;50.316;18.960;2022-09-29T17:51:23;32.08;;;16.50;;
42092;SDS011;28974;50.316;18.960;2022-09-29T18:03:24;41.95;;;21.67;;
42092;SDS011;28974;50.316;18.960;2022-09-29T18:15:25;61.10;;;25.50;;
42092;SDS011;28974;50.316;18.960;2022-09-29T18:27:26;57.92;;;30.38;;
42092;SDS011;28974;50.316;18.960;2022-09-29T18:39:26;59.28;;;31.40;;
42092;SDS011;28974;50.316;18.960;2022-09-29T18:51:26;82.72;;;34.50;;
42092;SDS011;28974;50.316;18.960;2022-09-29T19:03:27;78.32;;;33.63;;
42092;SDS011;28974;50.316;18.960;2022-09-29T19:15:29;66.15;;;32.70;;
42092;SDS011;28974;50.316;18.960;2022-09-29T19:27:30;77.53;;;32.95;;
42092;SDS011;28974;50.316;18.960;2022-09-29T19:39:30;77.35;;;31.38;;
42092;SDS011;28974;50.316;18.960;2022-09-29T19:51:30;77.50;;;35.13;;
42092;SDS011;28974;50.316;18.960;2022-09-29T20:03:50;65.45;;;34.78;;
42092;SDS011;28974;50.316;18.960;2022-09-29T20:15:50;60.25;;;30.90;;
42092;SDS011;28974;50.316;18.960;2022-09-29T20:27:50;67.63;;;32.90;;
42092;SDS011;28974;50.316;18.960;2022-09-29T20:39:52;81.70;;;37.22;;
42092;SDS011;28974;50.316;18.960;2022-09-29T20:51:53;76.03;;;35.72;;
42092;SDS011;28974;50.316;18.960;2022-09-29T21:03:58;72.30;;;30.02;;
42092;SDS011;28974;50.316;18.960;2022-09-29T21:15:59;57.75;;;28.48;;
42092;SDS011;28974;50.316;18.960;2022-09-29T21:28:00;79.22;;;33.65;;
42092;SDS011;28974;50.316;18.960;2022-09-29T21:40:00;71.78;;;32.30;;
42092;SDS011;28974;50.316;18.960;2022-09-29T21:52:01;74.90;;;31.05;;
42092;SDS011;28974;50.316;18.960;2022-09-29T22:04:01;77.68;;;35.25;;
42092;SDS011;28974;50.316;18.960;2022-09-29T22:16:06;82.22;;;35.13;;
42092;SDS011;28974;50.316;18.960;2022-09-29T22:28:07;81.40;;;35.72;;
42092;SDS011;28974;50.316;18.960;2022-09-29T22:40:08;89.70;;;42.85;;
42092;SDS011;28974;50.316;18.960;2022-09-29T22:52:09;76.97;;;37.47;;
42092;SDS011;28974;50.316;18.960;2022-09-29T23:04:09;76.88;;;37.08;;
42092;SDS011;28974;50.316;18.960;2022-09-29T23:16:10;67.78;;;29.88;;
42092;SDS011;28974;50.316;18.960;2022-09-29T23:28:10;53.58;;;24.95;;
42092;SDS011;28974;50.316;18.960;2022-09-29T23:40:11;60.70;;;26.73;;
42092;SDS011;28974;50.316;18.960;2022-09-29T23:52:11;58.03;;;27.38;;
